Main page
METAR-TAF:

METAR-TAF

Airports :

Damascus International Airport

Damascus, Syria

latitude: 33-25N, longitude: 036-31E, elevation: 608 m

Current weather observation

The report was made 1 hour and 3 minutes ago, at 08:00 UTC
Wind 4 kt from the East
Temperature 13°C
Humidity 77%
Pressure 1024 hPa
Visibility: 8000 m

METAR: OSDI 180800Z 08004KT 8000 13/09 Q1024

Time: 11:03 (09:03 UTC)

Forecast

The report was made 5 hours and 3 minutes ago, at 04:00 UTC
Forecast valid from 18 at 06 UTC to 19 at 12 UTC
Wind 3 kt from variable directions
Visibility: 3000 m
mist
Becoming
from 18 at 07 UTC to 18 at 09 UTC
Wind 10 kt from the Southwest
Visibility 10 km or more
Few clouds at a height of 3000 ft

TAF: OSDI 180400Z 1806/1912 VRB03KT 3000 BR BECMG 1807/1809 22010KT 9999 FEW030

Weather observations and forecasts of more than 4000 airports (METAR and TAF reports).

The available stations are represented by yellow and red dots on the map.

Hover mouse over dot to see the name of the station.

Then click to see weather observations and forecasts.

To change the map : click on the green buttons with a black cross to zoom in, on the green button with a dash to zoom out, or on the green arrows for adjacent maps.


METAR-TAF: